Bookmark and Share
Track history (hours):
 

Cheyenne

More information available from US FCC via Universal Licensing System and Coast Guard Vessel Documentation Center.

Last reported at 2014-Apr-18 02:05 UTC. Time now 2014-Apr-19 00:00 UTC.
Position N 41°07' W 073°53'.

Length 29 m; draft 4 m.

Type: Towing. MMSI: 367418570.

NotesDate/timePositionNaut miles runAvg speedWind from/ knotsBaromVisibWave heightAir tempDewpointWater temp
2014-Apr-18 02:05N 41°07' W 073°53'23 6.4
2014-Apr-17 22:31N 40°45' W 074°01'4 4.1
2014-Apr-17 21:33N 40°41' W 074°03'0 0.5
2014-Apr-17 20:33N 40°41' W 074°03'6 5.7
2014-Apr-17 19:33N 40°45' W 073°58'1 0.2
2014-Apr-17 14:04N 40°46' W 073°57'4 8.9
2014-Apr-17 13:33N 40°42' W 074°00'3 3.4
2014-Apr-17 12:33N 40°41' W 074°05'0 0.0
2014-Apr-17 11:33N 40°41' W 074°05'0 0.0
2014-Apr-17 10:33N 40°41' W 074°05'0 0.0
2014-Apr-17 09:33N 40°41' W 074°05'0 0.0
2014-Apr-17 08:13N 40°41' W 074°05'0 0.0
2014-Apr-17 07:33N 40°41' W 074°05'0 0.0
2014-Apr-17 06:31N 40°41' W 074°05'0 0.0
2014-Apr-17 05:31N 40°41' W 074°05'0 0.0
2014-Apr-17 04:19N 40°41' W 074°05'0 0.0
2014-Apr-17 03:14N 40°41' W 074°05'0 0.0
2014-Apr-17 02:33N 40°41' W 074°05'1 0.6
2014-Apr-17 01:33N 40°41' W 074°04'3 1.6
2014-Apr-16 23:31N 40°40' W 074°08'3 2.7
2014-Apr-16 22:33N 40°39' W 074°05'2 2.3
2014-Apr-16 21:33N 40°41' W 074°05'3 2.5
2014-Apr-16 20:24N 40°40' W 074°08'1 0.4
2014-Apr-16 17:25N 40°42' W 074°08'1 0.4
2014-Apr-16 14:20N 40°42' W 074°07'0 0.1
2014-Apr-16 13:29N 40°42' W 074°07'1 0.1
2014-Apr-16 02:29N 40°41' W 074°08'2 2.7
2014-Apr-16 01:33N 40°41' W 074°05'3 2.9
2014-Apr-16 00:33N 40°42' W 074°01'3 3.0
2014-Apr-15 23:33N 40°44' W 073°58'0 0.2
2014-Apr-15 22:33N 40°44' W 073°58'6 5.6
2014-Apr-15 21:33N 40°41' W 074°04'3 2.6
2014-Apr-15 20:32N 40°39' W 074°06'3 2.7
2014-Apr-15 19:32N 40°41' W 074°08'1 0.8
2014-Apr-15 18:33N 40°40' W 074°08'2 2.3
2014-Apr-15 17:33N 40°39' W 074°06'2 2.3
2014-Apr-15 16:31N 40°41' W 074°05'5 4.8
2014-Apr-15 15:33N 40°43' W 073°59'2 1.9
2014-Apr-15 14:33N 40°44' W 073°58'6 3.0
2014-Apr-15 12:34N 40°41' W 074°04'0 0.2
2014-Apr-15 11:34N 40°41' W 074°05'0 0.0
2014-Apr-15 10:34N 40°41' W 074°05'3 2.8
2014-Apr-15 09:33N 40°43' W 074°02'27 0.6
2014-Apr-13 11:10N 41°10' W 073°55'3 4.7
2014-Apr-13 10:33N 41°12' W 073°57'  
2014-Apr-11 03:33N 40°41' W 074°02'1 1.2
2014-Apr-11 02:33N 40°42' W 074°01'4 4.1
2014-Apr-11 01:33N 40°44' W 073°57'4 3.8
2014-Apr-11 00:33N 40°42' W 074°00'3 3.2
2014-Apr-10 23:33N 40°41' W 074°05'4 3.9
2014-Apr-10 22:33N 40°42' W 073°60'3 2.4
2014-Apr-10 21:21N 40°44' W 073°57'1 0.7
2014-Apr-10 20:32N 40°44' W 073°57'6 6.5
2014-Apr-10 19:33N 40°41' W 074°05'0 0.1
2014-Apr-10 18:33N 40°41' W 074°05'1 1.3
2014-Apr-10 17:33N 40°40' W 074°04'1 0.3
2014-Apr-10 15:33N 40°39' W 074°04'2 1.8
2014-Apr-10 14:33N 40°41' W 074°05'0 0.0
2014-Apr-10 13:33N 40°41' W 074°05'0 0.1
2014-Apr-10 12:33N 40°41' W 074°05'0 0.0
2014-Apr-10 11:33N 40°41' W 074°05'0 0.1
2014-Apr-10 10:32N 40°41' W 074°05'0 0.0
2014-Apr-10 09:29N 40°41' W 074°05'0 0.0
2014-Apr-10 08:33N 40°41' W 074°05'0 0.0
2014-Apr-10 07:30N 40°41' W 074°05'0 0.0
2014-Apr-10 06:33N 40°41' W 074°05'5 4.7
2014-Apr-10 05:33N 40°43' W 073°59'0 0.2
2014-Apr-10 04:33N 40°43' W 073°59'5 4.7
2014-Apr-10 03:33N 40°41' W 074°04'5 4.5
2014-Apr-10 02:33N 40°43' W 073°59'2 2.0
2014-Apr-10 01:33N 40°44' W 073°58'5 5.4
2014-Apr-10 00:33N 40°41' W 074°03'1 1.4
2014-Apr-09 23:33N 40°42' W 074°01'5 4.3
2014-Apr-09 22:27N 40°43' W 073°55'2 0.5
2014-Apr-09 19:08N 40°44' W 073°57'4 7.6
2014-Apr-09 18:33N 40°41' W 074°01'2 2.4
2014-Apr-09 17:33N 40°40' W 074°04'4 3.7
2014-Apr-09 16:33N 40°40' W 074°09'2 0.7
2014-Apr-09 14:22N 40°41' W 074°08'0 0.1
2014-Apr-09 13:29N 40°41' W 074°08'0 0.1
2014-Apr-09 12:30N 40°41' W 074°08'0 0.0
2014-Apr-09 07:30N 40°41' W 074°08'2 2.1
2014-Apr-09 06:33N 40°39' W 074°09'4 4.1
2014-Apr-09 05:33N 40°40' W 074°03'2 1.6
2014-Apr-09 04:33N 40°41' W 074°04'2 2.0
2014-Apr-09 03:33N 40°41' W 074°02'5 4.1
2014-Apr-09 02:23N 40°44' W 073°57'1 1.6
2014-Apr-09 01:33N 40°43' W 073°58'5 5.0
2014-Apr-09 00:33N 40°40' W 074°04'2 1.5
2014-Apr-08 23:33N 40°41' W 074°02'5 4.9
2014-Apr-08 22:33N 40°44' W 073°57'0 0.0
2014-Apr-08 21:27N 40°44' W 073°57'4 4.4
2014-Apr-08 20:33N 40°42' W 074°00'3 3.1
2014-Apr-08 19:32N 40°41' W 074°05'0 0.0
2014-Apr-08 18:31N 40°41' W 074°05'0 0.0
2014-Apr-08 17:27N 40°41' W 074°05'0 0.0
2014-Apr-08 16:33N 40°41' W 074°05'  

Dump ship's entire track history

sailing weather and tide predictions

Cheyenne — WDE9553 — position and weather